Siping, China
Current Conditions -  °F | °C
As of 6:00 PM on Thursday 29 Jan 2015 (Local Time) from ZYCC Reporting Station
Clear Clear  
Wind Chill: -16°   Ceiling: Unl
Heat Index: -10°   Visibility: 4mi
Dew Point: -19°   Wind: 7mph
Humidity: 49%   Direction: 190°S
Pressure: 30.21"   Gusts: NA
Location:  43.17°N, 124.33°E
Report Text: ZYCC 291000Z 19003MPS 6000 NSC M10/M19 Q1023 NOSIG
Loading
Personal Weather Stations






























Interactive Weather Map New forecast layout! Learn more

10-Day Weather Forecast

Advertisements
Track Severe Weather on mobile